sensor_id;sensor_type;location;lat;lon;timestamp;pressure;altitude;pressure_sealevel;temperature;humidity
65659;BME280;60181;53.258;6.932;2023-05-25T00:03:31;102783.08;;;17.06;57.41
65659;BME280;60181;53.258;6.932;2023-05-25T00:07:35;102785.08;;;17.05;57.40
65659;BME280;60181;53.258;6.932;2023-05-25T00:11:39;102786.28;;;17.05;57.44
65659;BME280;60181;53.258;6.932;2023-05-25T00:15:44;102788.10;;;17.04;57.86
65659;BME280;60181;53.258;6.932;2023-05-25T00:19:47;102788.96;;;17.03;57.74
65659;BME280;60181;53.258;6.932;2023-05-25T00:23:51;102788.11;;;17.02;58.14
65659;BME280;60181;53.258;6.932;2023-05-25T00:27:55;102786.93;;;17.01;57.80
65659;BME280;60181;53.258;6.932;2023-05-25T00:31:59;102786.13;;;17.00;57.65
65659;BME280;60181;53.258;6.932;2023-05-25T00:36:04;102785.51;;;16.99;57.82
65659;BME280;60181;53.258;6.932;2023-05-25T00:40:08;102785.49;;;16.98;57.59
65659;BME280;60181;53.258;6.932;2023-05-25T00:44:11;102785.61;;;16.97;57.67
65659;BME280;60181;53.258;6.932;2023-05-25T00:48:15;102785.08;;;16.95;57.49
65659;BME280;60181;53.258;6.932;2023-05-25T00:52:19;102785.40;;;16.95;57.45
65659;BME280;60181;53.258;6.932;2023-05-25T00:56:25;102785.45;;;16.95;57.57
65659;BME280;60181;53.258;6.932;2023-05-25T01:00:27;102785.78;;;16.97;57.44
65659;BME280;60181;53.258;6.932;2023-05-25T01:04:32;102785.61;;;16.97;57.29
65659;BME280;60181;53.258;6.932;2023-05-25T01:08:35;102785.06;;;16.97;57.39
65659;BME280;60181;53.258;6.932;2023-05-25T01:12:39;102784.73;;;16.97;57.12
65659;BME280;60181;53.258;6.932;2023-05-25T01:16:43;102786.36;;;16.97;57.18
65659;BME280;60181;53.258;6.932;2023-05-25T01:24:55;102787.65;;;16.95;57.24
65659;BME280;60181;53.258;6.932;2023-05-25T01:28:55;102788.07;;;16.94;57.80
65659;BME280;60181;53.258;6.932;2023-05-25T01:32:59;102789.94;;;16.93;56.96
65659;BME280;60181;53.258;6.932;2023-05-25T01:37:03;102791.56;;;16.92;56.65
65659;BME280;60181;53.258;6.932;2023-05-25T01:41:07;102794.03;;;16.92;56.78
65659;BME280;60181;53.258;6.932;2023-05-25T01:45:12;102797.23;;;16.91;56.54
65659;BME280;60181;53.258;6.932;2023-05-25T01:49:20;102800.01;;;16.90;56.57
65659;BME280;60181;53.258;6.932;2023-05-25T01:53:22;102802.53;;;16.89;56.11
65659;BME280;60181;53.258;6.932;2023-05-25T01:57:23;102803.41;;;16.88;56.28
65659;BME280;60181;53.258;6.932;2023-05-25T02:01:27;102804.48;;;16.87;56.09
65659;BME280;60181;53.258;6.932;2023-05-25T02:05:31;102806.69;;;16.86;56.34
65659;BME280;60181;53.258;6.932;2023-05-25T02:09:35;102809.05;;;16.86;56.47
65659;BME280;60181;53.258;6.932;2023-05-25T02:13:39;102810.58;;;16.84;56.56
65659;BME280;60181;53.258;6.932;2023-05-25T02:17:43;102812.23;;;16.84;56.19
65659;BME280;60181;53.258;6.932;2023-05-25T02:21:47;102812.52;;;16.83;56.67
65659;BME280;60181;53.258;6.932;2023-05-25T02:25:51;102813.18;;;16.83;56.03
65659;BME280;60181;53.258;6.932;2023-05-25T02:29:55;102811.50;;;16.82;56.26
65659;BME280;60181;53.258;6.932;2023-05-25T02:33:59;102809.14;;;16.81;56.83
65659;BME280;60181;53.258;6.932;2023-05-25T02:38:03;102806.96;;;16.80;56.52
65659;BME280;60181;53.258;6.932;2023-05-25T02:42:07;102806.13;;;16.80;56.75
65659;BME280;60181;53.258;6.932;2023-05-25T02:46:11;102805.63;;;16.80;56.75
65659;BME280;60181;53.258;6.932;2023-05-25T02:50:15;102804.21;;;16.82;57.50
65659;BME280;60181;53.258;6.932;2023-05-25T02:54:19;102803.30;;;16.84;56.21
65659;BME280;60181;53.258;6.932;2023-05-25T02:58:23;102804.46;;;16.85;55.94
65659;BME280;60181;53.258;6.932;2023-05-25T03:02:27;102807.26;;;16.84;55.99
65659;BME280;60181;53.258;6.932;2023-05-25T03:06:31;102810.21;;;16.83;55.72
65659;BME280;60181;53.258;6.932;2023-05-25T03:10:35;102813.73;;;16.82;55.25
65659;BME280;60181;53.258;6.932;2023-05-25T03:14:39;102818.01;;;16.81;54.88
65659;BME280;60181;53.258;6.932;2023-05-25T03:18:43;102821.44;;;16.79;54.84
65659;BME280;60181;53.258;6.932;2023-05-25T03:22:47;102825.42;;;16.78;54.57
65659;BME280;60181;53.258;6.932;2023-05-25T03:26:51;102829.68;;;16.76;54.70
65659;BME280;60181;53.258;6.932;2023-05-25T03:30:55;102833.15;;;16.74;54.59
65659;BME280;60181;53.258;6.932;2023-05-25T03:34:59;102835.82;;;16.72;54.65
65659;BME280;60181;53.258;6.932;2023-05-25T03:39:06;102838.01;;;16.71;54.54
65659;BME280;60181;53.258;6.932;2023-05-25T03:43:07;102839.58;;;16.73;56.48
65659;BME280;60181;53.258;6.932;2023-05-25T03:47:11;102842.80;;;16.75;56.77
65659;BME280;60181;53.258;6.932;2023-05-25T03:51:15;102844.45;;;16.77;57.03
65659;BME280;60181;53.258;6.932;2023-05-25T03:55:19;102846.39;;;16.79;57.18
65659;BME280;60181;53.258;6.932;2023-05-25T03:59:23;102847.56;;;16.86;56.28
65659;BME280;60181;53.258;6.932;2023-05-25T04:03:28;102848.21;;;17.04;54.95
65659;BME280;60181;53.258;6.932;2023-05-25T04:07:31;102849.90;;;17.26;54.21
65659;BME280;60181;53.258;6.932;2023-05-25T04:11:35;102852.11;;;17.48;53.64
65659;BME280;60181;53.258;6.932;2023-05-25T04:15:39;102854.47;;;17.71;53.42
65659;BME280;60181;53.258;6.932;2023-05-25T04:19:43;102855.74;;;17.90;53.26
65659;BME280;60181;53.258;6.932;2023-05-25T04:23:47;102856.19;;;18.07;53.13
65659;BME280;60181;53.258;6.932;2023-05-25T04:27:51;102856.64;;;18.46;49.91
65659;BME280;60181;53.258;6.932;2023-05-25T04:31:55;102856.45;;;19.26;44.54
65659;BME280;60181;53.258;6.932;2023-05-25T04:35:59;102856.92;;;20.12;42.70
65659;BME280;60181;53.258;6.932;2023-05-25T04:40:03;102857.30;;;20.87;41.86
65659;BME280;60181;53.258;6.932;2023-05-25T04:44:07;102857.97;;;21.58;40.88
65659;BME280;60181;53.258;6.932;2023-05-25T04:48:11;102858.84;;;22.22;40.23
65659;BME280;60181;53.258;6.932;2023-05-25T04:52:15;102859.81;;;22.77;39.66
65659;BME280;60181;53.258;6.932;2023-05-25T04:56:19;102858.94;;;23.09;45.21
65659;BME280;60181;53.258;6.932;2023-05-25T05:00:23;102859.08;;;22.72;50.77
65659;BME280;60181;53.258;6.932;2023-05-25T05:04:27;102858.19;;;22.41;50.39
65659;BME280;60181;53.258;6.932;2023-05-25T05:08:31;102860.02;;;22.01;52.84
65659;BME280;60181;53.258;6.932;2023-05-25T05:12:35;102861.80;;;21.58;53.81
65659;BME280;60181;53.258;6.932;2023-05-25T05:16:39;102863.57;;;21.17;54.80
65659;BME280;60181;53.258;6.932;2023-05-25T05:20:43;102867.29;;;20.73;56.12
65659;BME280;60181;53.258;6.932;2023-05-25T05:24:47;102871.36;;;20.34;56.64
65659;BME280;60181;53.258;6.932;2023-05-25T05:28:51;102875.77;;;20.02;56.90
65659;BME280;60181;53.258;6.932;2023-05-25T05:32:55;102879.60;;;19.74;57.27
65659;BME280;60181;53.258;6.932;2023-05-25T05:36:59;102884.18;;;19.52;57.50
65659;BME280;60181;53.258;6.932;2023-05-25T05:41:03;102888.05;;;19.34;57.84
65659;BME280;60181;53.258;6.932;2023-05-25T05:45:07;102892.20;;;19.18;58.48
65659;BME280;60181;53.258;6.932;2023-05-25T05:49:11;102897.30;;;19.03;58.37
65659;BME280;60181;53.258;6.932;2023-05-25T05:53:15;102902.81;;;18.90;58.69
65659;BME280;60181;53.258;6.932;2023-05-25T05:57:19;102907.87;;;18.78;58.81
65659;BME280;60181;53.258;6.932;2023-05-25T06:01:23;102913.28;;;18.68;58.94
65659;BME280;60181;53.258;6.932;2023-05-25T06:05:27;102918.85;;;18.60;59.03
65659;BME280;60181;53.258;6.932;2023-05-25T06:09:31;102925.04;;;18.53;58.97
65659;BME280;60181;53.258;6.932;2023-05-25T06:13:35;102929.68;;;18.49;58.91
65659;BME280;60181;53.258;6.932;2023-05-25T06:17:39;102932.81;;;18.45;59.07
65659;BME280;60181;53.258;6.932;2023-05-25T06:21:43;102936.28;;;18.43;59.07
65659;BME280;60181;53.258;6.932;2023-05-25T06:25:47;102939.51;;;18.42;58.65
65659;BME280;60181;53.258;6.932;2023-05-25T06:29:51;102943.47;;;18.42;58.84
65659;BME280;60181;53.258;6.932;2023-05-25T06:33:55;102947.73;;;18.43;58.61
65659;BME280;60181;53.258;6.932;2023-05-25T06:37:59;102951.42;;;18.44;58.69
65659;BME280;60181;53.258;6.932;2023-05-25T06:42:03;102954.55;;;18.46;58.59
65659;BME280;60181;53.258;6.932;2023-05-25T06:46:07;102958.47;;;18.49;58.58
65659;BME280;60181;53.258;6.932;2023-05-25T06:50:11;102961.67;;;18.60;57.33
65659;BME280;60181;53.258;6.932;2023-05-25T06:54:15;102965.83;;;18.62;58.30
65659;BME280;60181;53.258;6.932;2023-05-25T06:58:19;102969.89;;;18.62;58.73
65659;BME280;60181;53.258;6.932;2023-05-25T07:02:23;102973.73;;;18.75;56.86
65659;BME280;60181;53.258;6.932;2023-05-25T07:06:27;102976.22;;;18.93;56.27
65659;BME280;60181;53.258;6.932;2023-05-25T07:10:31;102978.85;;;19.09;56.50
65659;BME280;60181;53.258;6.932;2023-05-25T07:14:35;102982.25;;;19.20;56.51
65659;BME280;60181;53.258;6.932;2023-05-25T07:18:39;102986.58;;;19.34;56.18
65659;BME280;60181;53.258;6.932;2023-05-25T07:22:45;102990.86;;;19.41;57.10
65659;BME280;60181;53.258;6.932;2023-05-25T07:26:47;102996.09;;;19.42;57.09
65659;BME280;60181;53.258;6.932;2023-05-25T07:30:51;103000.28;;;19.46;57.00
65659;BME280;60181;53.258;6.932;2023-05-25T07:34:55;103003.64;;;19.54;56.24
65659;BME280;60181;53.258;6.932;2023-05-25T07:38:59;103007.86;;;19.53;57.57
65659;BME280;60181;53.258;6.932;2023-05-25T07:43:03;103012.49;;;19.48;57.78
65659;BME280;60181;53.258;6.932;2023-05-25T07:47:07;103015.77;;;19.47;57.53
65659;BME280;60181;53.258;6.932;2023-05-25T07:51:11;103018.65;;;19.47;57.40
65659;BME280;60181;53.258;6.932;2023-05-25T07:55:15;103022.38;;;19.52;56.56
65659;BME280;60181;53.258;6.932;2023-05-25T07:59:19;103025.27;;;19.60;56.16
65659;BME280;60181;53.258;6.932;2023-05-25T08:03:23;103029.70;;;19.62;57.00
65659;BME280;60181;53.258;6.932;2023-05-25T08:07:27;103032.82;;;19.61;56.89
65659;BME280;60181;53.258;6.932;2023-05-25T08:11:31;103034.72;;;19.66;56.41
65659;BME280;60181;53.258;6.932;2023-05-25T08:15:35;103038.82;;;19.67;57.12
65659;BME280;60181;53.258;6.932;2023-05-25T08:19:39;103043.32;;;19.62;57.70
65659;BME280;60181;53.258;6.932;2023-05-25T08:23:43;103047.06;;;19.55;57.75
65659;BME280;60181;53.258;6.932;2023-05-25T08:27:47;103051.90;;;19.50;57.57
65659;BME280;60181;53.258;6.932;2023-05-25T08:31:51;103057.71;;;19.50;57.07
65659;BME280;60181;53.258;6.932;2023-05-25T08:35:55;103063.05;;;19.52;57.50
65659;BME280;60181;53.258;6.932;2023-05-25T08:39:59;103068.12;;;19.53;59.08
65659;BME280;60181;53.258;6.932;2023-05-25T08:44:03;103070.94;;;19.50;58.95
65659;BME280;60181;53.258;6.932;2023-05-25T08:48:08;103072.80;;;19.51;59.29
65659;BME280;60181;53.258;6.932;2023-05-25T08:52:12;103075.34;;;19.53;59.48
65659;BME280;60181;53.258;6.932;2023-05-25T08:56:16;103078.17;;;19.53;59.47
65659;BME280;60181;53.258;6.932;2023-05-25T09:00:20;103080.14;;;19.51;59.56
65659;BME280;60181;53.258;6.932;2023-05-25T09:04:23;103082.10;;;19.54;59.39
65659;BME280;60181;53.258;6.932;2023-05-25T09:08:27;103083.50;;;19.52;59.81
65659;BME280;60181;53.258;6.932;2023-05-25T09:12:31;103085.93;;;19.48;60.01
65659;BME280;60181;53.258;6.932;2023-05-25T09:16:36;103088.29;;;19.47;59.47
65659;BME280;60181;53.258;6.932;2023-05-25T09:20:39;103090.56;;;19.44;59.49
65659;BME280;60181;53.258;6.932;2023-05-25T09:24:43;103091.76;;;19.45;58.75
65659;BME280;60181;53.258;6.932;2023-05-25T09:28:47;103093.90;;;19.44;59.11
65659;BME280;60181;53.258;6.932;2023-05-25T09:32:51;103094.32;;;19.42;59.08
65659;BME280;60181;53.258;6.932;2023-05-25T09:36:55;103095.78;;;19.38;59.27
65659;BME280;60181;53.258;6.932;2023-05-25T09:40:59;103096.69;;;19.34;59.35
65659;BME280;60181;53.258;6.932;2023-05-25T09:45:03;103098.97;;;19.30;59.43
65659;BME280;60181;53.258;6.932;2023-05-25T09:49:07;103099.38;;;19.26;59.37
65659;BME280;60181;53.258;6.932;2023-05-25T09:53:11;103101.03;;;19.23;59.38
65659;BME280;60181;53.258;6.932;2023-05-25T09:57:15;103102.88;;;19.20;59.30
65659;BME280;60181;53.258;6.932;2023-05-25T10:01:19;103104.79;;;19.21;59.04
65659;BME280;60181;53.258;6.932;2023-05-25T10:05:23;103106.57;;;19.21;58.74
65659;BME280;60181;53.258;6.932;2023-05-25T10:09:27;103110.60;;;19.21;58.94
65659;BME280;60181;53.258;6.932;2023-05-25T10:13:30;103114.25;;;19.20;58.92
65659;BME280;60181;53.258;6.932;2023-05-25T10:17:35;103117.91;;;19.21;58.81
65659;BME280;60181;53.258;6.932;2023-05-25T10:21:38;103121.18;;;19.21;58.59
65659;BME280;60181;53.258;6.932;2023-05-25T10:25:43;103123.89;;;19.21;58.81
65659;BME280;60181;53.258;6.932;2023-05-25T10:29:47;103126.92;;;19.22;58.50
65659;BME280;60181;53.258;6.932;2023-05-25T10:33:50;103130.03;;;19.23;58.43
65659;BME280;60181;53.258;6.932;2023-05-25T10:37:54;103132.39;;;19.22;58.68
65659;BME280;60181;53.258;6.932;2023-05-25T10:41:58;103133.78;;;19.20;58.71
65659;BME280;60181;53.258;6.932;2023-05-25T10:46:05;103134.80;;;19.19;58.70
65659;BME280;60181;53.258;6.932;2023-05-25T10:50:17;103135.51;;;19.17;58.65
65659;BME280;60181;53.258;6.932;2023-05-25T10:54:12;103134.92;;;19.17;58.60
65659;BME280;60181;53.258;6.932;2023-05-25T10:58:15;103135.17;;;19.17;58.57
65659;BME280;60181;53.258;6.932;2023-05-25T11:02:18;103136.10;;;19.17;58.50
65659;BME280;60181;53.258;6.932;2023-05-25T11:07:02;103137.00;;;19.17;58.55
65659;BME280;60181;53.258;6.932;2023-05-25T11:14:33;103137.84;;;19.17;58.46
65659;BME280;60181;53.258;6.932;2023-05-25T11:18:38;103137.84;;;19.18;58.52
65659;BME280;60181;53.258;6.932;2023-05-25T11:22:38;103136.93;;;19.17;58.57
65659;BME280;60181;53.258;6.932;2023-05-25T11:26:55;103135.64;;;19.16;58.63
65659;BME280;60181;53.258;6.932;2023-05-25T11:30:46;103133.83;;;19.14;58.79
65659;BME280;60181;53.258;6.932;2023-05-25T11:34:51;103134.00;;;19.13;58.60
65659;BME280;60181;53.258;6.932;2023-05-25T11:38:54;103133.58;;;19.14;58.49
65659;BME280;60181;53.258;6.932;2023-05-25T11:42:58;103133.58;;;19.14;58.60
65659;BME280;60181;53.258;6.932;2023-05-25T11:47:04;103133.42;;;19.14;58.52
65659;BME280;60181;53.258;6.932;2023-05-25T11:51:06;103134.03;;;19.15;58.53
65659;BME280;60181;53.258;6.932;2023-05-25T11:55:11;103132.48;;;19.16;58.41
65659;BME280;60181;53.258;6.932;2023-05-25T11:59:14;103132.46;;;19.15;58.55
65659;BME280;60181;53.258;6.932;2023-05-25T12:03:30;103130.54;;;19.15;58.42
65659;BME280;60181;53.258;6.932;2023-05-25T12:07:23;103129.25;;;19.16;58.48
65659;BME280;60181;53.258;6.932;2023-05-25T12:11:27;103128.08;;;19.16;58.36
65659;BME280;60181;53.258;6.932;2023-05-25T12:15:30;103126.67;;;19.16;58.61
65659;BME280;60181;53.258;6.932;2023-05-25T12:19:34;103126.33;;;19.16;58.53
65659;BME280;60181;53.258;6.932;2023-05-25T12:23:38;103125.88;;;19.18;58.21
65659;BME280;60181;53.258;6.932;2023-05-25T12:27:42;103124.71;;;19.18;58.45
65659;BME280;60181;53.258;6.932;2023-05-25T12:31:46;103125.88;;;19.17;58.52
65659;BME280;60181;53.258;6.932;2023-05-25T12:35:50;103127.12;;;19.17;58.56
65659;BME280;60181;53.258;6.932;2023-05-25T12:39:54;103128.14;;;19.15;58.76
65659;BME280;60181;53.258;6.932;2023-05-25T12:43:58;103129.15;;;19.13;58.80
65659;BME280;60181;53.258;6.932;2023-05-25T12:48:02;103128.76;;;19.14;58.42
65659;BME280;60181;53.258;6.932;2023-05-25T12:52:07;103127.14;;;19.15;58.45
65659;BME280;60181;53.258;6.932;2023-05-25T12:56:10;103127.51;;;19.14;58.66
65659;BME280;60181;53.258;6.932;2023-05-25T13:00:14;103126.45;;;19.12;58.87
65659;BME280;60181;53.258;6.932;2023-05-25T13:04:18;103123.93;;;19.10;58.72
65659;BME280;60181;53.258;6.932;2023-05-25T13:08:22;103122.44;;;19.11;58.62
65659;BME280;60181;53.258;6.932;2023-05-25T13:12:26;103120.28;;;19.10;58.76
65659;BME280;60181;53.258;6.932;2023-05-25T13:16:33;103118.76;;;19.07;58.88
65659;BME280;60181;53.258;6.932;2023-05-25T13:20:34;103119.09;;;19.04;58.71
65659;BME280;60181;53.258;6.932;2023-05-25T13:24:38;103117.98;;;19.01;58.66
65659;BME280;60181;53.258;6.932;2023-05-25T13:28:42;103117.41;;;19.00;58.71
65659;BME280;60181;53.258;6.932;2023-05-25T13:32:46;103115.91;;;19.00;58.62
65659;BME280;60181;53.258;6.932;2023-05-25T13:36:50;103114.83;;;19.00;58.60
65659;BME280;60181;53.258;6.932;2023-05-25T13:40:54;103111.46;;;19.01;58.42
65659;BME280;60181;53.258;6.932;2023-05-25T13:44:58;103109.44;;;19.01;58.77
65659;BME280;60181;53.258;6.932;2023-05-25T13:49:02;103108.19;;;19.01;58.75
65659;BME280;60181;53.258;6.932;2023-05-25T13:53:06;103108.94;;;19.00;58.73
65659;BME280;60181;53.258;6.932;2023-05-25T13:57:10;103108.91;;;18.99;58.79
65659;BME280;60181;53.258;6.932;2023-05-25T14:01:14;103109.08;;;18.97;58.97
65659;BME280;60181;53.258;6.932;2023-05-25T14:05:18;103108.80;;;18.97;58.73
65659;BME280;60181;53.258;6.932;2023-05-25T14:09:22;103109.89;;;18.96;58.91
65659;BME280;60181;53.258;6.932;2023-05-25T14:13:26;103111.61;;;18.94;59.02
65659;BME280;60181;53.258;6.932;2023-05-25T14:17:30;103111.50;;;18.93;58.82
65659;BME280;60181;53.258;6.932;2023-05-25T14:21:34;103112.05;;;18.92;58.84
65659;BME280;60181;53.258;6.932;2023-05-25T14:25:38;103112.76;;;18.91;59.16
65659;BME280;60181;53.258;6.932;2023-05-25T14:29:42;103111.73;;;18.89;59.08
65659;BME280;60181;53.258;6.932;2023-05-25T14:33:46;103110.53;;;18.89;59.04
65659;BME280;60181;53.258;6.932;2023-05-25T14:37:50;103108.95;;;18.89;58.97
65659;BME280;60181;53.258;6.932;2023-05-25T14:41:54;103106.71;;;18.88;58.80
65659;BME280;60181;53.258;6.932;2023-05-25T14:45:58;103106.47;;;18.89;58.89
65659;BME280;60181;53.258;6.932;2023-05-25T14:50:02;103105.88;;;18.88;58.97
65659;BME280;60181;53.258;6.932;2023-05-25T14:54:06;103104.44;;;18.87;58.94
65659;BME280;60181;53.258;6.932;2023-05-25T14:58:10;103104.20;;;18.85;58.92
65659;BME280;60181;53.258;6.932;2023-05-25T15:02:14;103104.09;;;18.84;59.00
65659;BME280;60181;53.258;6.932;2023-05-25T15:06:18;103103.89;;;18.83;59.03
65659;BME280;60181;53.258;6.932;2023-05-25T15:10:22;103103.56;;;18.81;59.06
65659;BME280;60181;53.258;6.932;2023-05-25T15:14:26;103103.37;;;18.80;58.96
65659;BME280;60181;53.258;6.932;2023-05-25T15:18:30;103105.00;;;18.79;58.95
65659;BME280;60181;53.258;6.932;2023-05-25T15:22:34;103105.63;;;18.77;59.19
65659;BME280;60181;53.258;6.932;2023-05-25T15:26:38;103105.31;;;18.75;58.92
65659;BME280;60181;53.258;6.932;2023-05-25T15:30:42;103106.57;;;18.75;58.95
65659;BME280;60181;53.258;6.932;2023-05-25T15:34:46;103107.85;;;18.74;58.97
65659;BME280;60181;53.258;6.932;2023-05-25T15:38:50;103108.64;;;18.73;58.88
65659;BME280;60181;53.258;6.932;2023-05-25T15:42:54;103109.64;;;18.73;58.81
65659;BME280;60181;53.258;6.932;2023-05-25T15:46:58;103111.22;;;18.73;59.02
65659;BME280;60181;53.258;6.932;2023-05-25T15:51:02;103113.27;;;18.72;58.97
65659;BME280;60181;53.258;6.932;2023-05-25T15:55:06;103114.39;;;18.70;59.00
65659;BME280;60181;53.258;6.932;2023-05-25T15:59:10;103116.02;;;18.69;59.21
65659;BME280;60181;53.258;6.932;2023-05-25T16:03:14;103115.73;;;18.68;59.03
65659;BME280;60181;53.258;6.932;2023-05-25T16:07:18;103115.70;;;18.67;59.01
65659;BME280;60181;53.258;6.932;2023-05-25T16:11:22;103116.11;;;18.67;58.92
65659;BME280;60181;53.258;6.932;2023-05-25T16:15:26;103115.75;;;18.66;59.11
65659;BME280;60181;53.258;6.932;2023-05-25T16:19:30;103115.52;;;18.64;59.19
65659;BME280;60181;53.258;6.932;2023-05-25T16:23:34;103115.89;;;18.63;59.08
65659;BME280;60181;53.258;6.932;2023-05-25T16:27:38;103117.02;;;18.62;59.14
65659;BME280;60181;53.258;6.932;2023-05-25T16:31:42;103118.35;;;18.61;59.04
65659;BME280;60181;53.258;6.932;2023-05-25T16:35:46;103119.14;;;18.61;59.09
65659;BME280;60181;53.258;6.932;2023-05-25T16:39:50;103119.02;;;18.59;59.16
65659;BME280;60181;53.258;6.932;2023-05-25T16:43:54;103118.74;;;18.58;59.02
65659;BME280;60181;53.258;6.932;2023-05-25T16:47:58;103118.96;;;18.58;59.16
65659;BME280;60181;53.258;6.932;2023-05-25T16:52:02;103118.99;;;18.56;59.27
65659;BME280;60181;53.258;6.932;2023-05-25T16:56:06;103118.24;;;18.53;59.44
65659;BME280;60181;53.258;6.932;2023-05-25T17:00:10;103119.14;;;18.52;59.32
65659;BME280;60181;53.258;6.932;2023-05-25T17:04:14;103118.96;;;18.52;59.16
65659;BME280;60181;53.258;6.932;2023-05-25T17:08:18;103119.26;;;18.54;61.19
65659;BME280;60181;53.258;6.932;2023-05-25T17:12:22;103121.19;;;18.57;63.28
65659;BME280;60181;53.258;6.932;2023-05-25T17:16:26;103120.52;;;18.60;63.40
65659;BME280;60181;53.258;6.932;2023-05-25T17:20:30;103120.46;;;18.62;63.30
65659;BME280;60181;53.258;6.932;2023-05-25T17:24:34;103120.08;;;18.64;63.06
65659;BME280;60181;53.258;6.932;2023-05-25T17:28:38;103122.11;;;18.65;63.27
65659;BME280;60181;53.258;6.932;2023-05-25T17:32:42;103123.47;;;18.66;63.07
65659;BME280;60181;53.258;6.932;2023-05-25T17:36:46;103124.79;;;18.66;63.28
65659;BME280;60181;53.258;6.932;2023-05-25T17:40:50;103126.33;;;18.68;62.95
65659;BME280;60181;53.258;6.932;2023-05-25T17:44:54;103126.18;;;18.68;63.03
65659;BME280;60181;53.258;6.932;2023-05-25T17:48:58;103126.44;;;18.68;63.17
65659;BME280;60181;53.258;6.932;2023-05-25T17:53:02;103127.91;;;18.67;63.26
65659;BME280;60181;53.258;6.932;2023-05-25T17:57:06;103128.06;;;18.67;62.71
65659;BME280;60181;53.258;6.932;2023-05-25T18:01:10;103127.61;;;18.66;62.82
65659;BME280;60181;53.258;6.932;2023-05-25T18:05:14;103128.37;;;18.63;62.46
65659;BME280;60181;53.258;6.932;2023-05-25T18:09:18;103128.55;;;18.61;62.39
65659;BME280;60181;53.258;6.932;2023-05-25T18:13:22;103128.61;;;18.59;62.25
65659;BME280;60181;53.258;6.932;2023-05-25T18:17:26;103128.09;;;18.55;62.28
65659;BME280;60181;53.258;6.932;2023-05-25T18:21:30;103127.94;;;18.52;62.09
65659;BME280;60181;53.258;6.932;2023-05-25T18:25:34;103127.10;;;18.50;62.13
65659;BME280;60181;53.258;6.932;2023-05-25T18:29:38;103126.57;;;18.46;62.14
65659;BME280;60181;53.258;6.932;2023-05-25T18:33:42;103127.98;;;18.44;62.04
65659;BME280;60181;53.258;6.932;2023-05-25T18:37:46;103129.25;;;18.41;62.06
65659;BME280;60181;53.258;6.932;2023-05-25T18:41:50;103130.63;;;18.38;61.99
65659;BME280;60181;53.258;6.932;2023-05-25T18:45:54;103132.39;;;18.36;62.03
65659;BME280;60181;53.258;6.932;2023-05-25T18:49:58;103133.36;;;18.33;61.96
65659;BME280;60181;53.258;6.932;2023-05-25T18:54:02;103134.73;;;18.31;62.13
65659;BME280;60181;53.258;6.932;2023-05-25T18:58:06;103135.11;;;18.30;62.01
65659;BME280;60181;53.258;6.932;2023-05-25T19:02:10;103133.63;;;18.28;62.01
65659;BME280;60181;53.258;6.932;2023-05-25T19:06:14;103131.69;;;18.25;61.95
65659;BME280;60181;53.258;6.932;2023-05-25T19:10:18;103130.79;;;18.22;61.98
65659;BME280;60181;53.258;6.932;2023-05-25T19:14:22;103130.37;;;18.20;61.98
65659;BME280;60181;53.258;6.932;2023-05-25T19:18:26;103131.35;;;18.17;61.93
65659;BME280;60181;53.258;6.932;2023-05-25T19:22:30;103132.52;;;18.15;61.88
65659;BME280;60181;53.258;6.932;2023-05-25T19:26:34;103134.30;;;18.13;61.85
65659;BME280;60181;53.258;6.932;2023-05-25T19:30:38;103136.05;;;18.11;61.85
65659;BME280;60181;53.258;6.932;2023-05-25T19:34:42;103138.64;;;18.09;61.83
65659;BME280;60181;53.258;6.932;2023-05-25T19:38:46;103140.00;;;18.08;61.90
65659;BME280;60181;53.258;6.932;2023-05-25T19:42:50;103141.92;;;18.06;61.89
65659;BME280;60181;53.258;6.932;2023-05-25T19:46:54;103144.65;;;18.05;62.10
65659;BME280;60181;53.258;6.932;2023-05-25T19:50:58;103147.92;;;18.07;62.32
65659;BME280;60181;53.258;6.932;2023-05-25T19:55:02;103150.87;;;18.08;62.79
65659;BME280;60181;53.258;6.932;2023-05-25T19:59:06;103153.93;;;18.10;62.36
65659;BME280;60181;53.258;6.932;2023-05-25T20:03:10;103156.49;;;18.11;62.29
65659;BME280;60181;53.258;6.932;2023-05-25T20:07:14;103158.50;;;18.11;62.02
65659;BME280;60181;53.258;6.932;2023-05-25T20:11:18;103160.56;;;18.11;61.92
65659;BME280;60181;53.258;6.932;2023-05-25T20:15:22;103161.77;;;18.10;61.81
65659;BME280;60181;53.258;6.932;2023-05-25T20:19:26;103164.76;;;18.09;61.72
65659;BME280;60181;53.258;6.932;2023-05-25T20:23:30;103167.13;;;18.08;61.64
65659;BME280;60181;53.258;6.932;2023-05-25T20:27:34;103169.53;;;18.08;61.58
65659;BME280;60181;53.258;6.932;2023-05-25T20:31:38;103169.32;;;18.07;61.56
65659;BME280;60181;53.258;6.932;2023-05-25T20:35:42;103170.10;;;18.06;61.50
65659;BME280;60181;53.258;6.932;2023-05-25T20:39:46;103170.48;;;18.05;61.46
65659;BME280;60181;53.258;6.932;2023-05-25T20:43:50;103171.61;;;18.04;61.52
65659;BME280;60181;53.258;6.932;2023-05-25T20:48:00;103173.32;;;18.03;61.46
65659;BME280;60181;53.258;6.932;2023-05-25T20:51:58;103173.65;;;18.02;61.45
65659;BME280;60181;53.258;6.932;2023-05-25T20:56:02;103174.18;;;18.01;61.45
65659;BME280;60181;53.258;6.932;2023-05-25T21:00:06;103175.56;;;18.00;61.45
65659;BME280;60181;53.258;6.932;2023-05-25T21:04:10;103176.39;;;18.00;61.39
65659;BME280;60181;53.258;6.932;2023-05-25T21:08:14;103176.60;;;17.99;61.38
65659;BME280;60181;53.258;6.932;2023-05-25T21:12:18;103177.42;;;17.99;61.38
65659;BME280;60181;53.258;6.932;2023-05-25T21:16:22;103177.31;;;17.98;61.41
65659;BME280;60181;53.258;6.932;2023-05-25T21:20:26;103177.98;;;17.97;61.33
65659;BME280;60181;53.258;6.932;2023-05-25T21:24:30;103178.14;;;17.97;61.27